Time;durP1;ratioP1;P1;durP2;ratioP2;P2;SDS_P1;SDS_P2;PMS_P1;PMS_P2;Temp;Humidity;BMP_temperature;BMP_pressure;BME280_temperature;BME280_humidity;BME280_pressure;Samples;Min_cycle;Max_cycle;Signal;HPM_P1;HPM_P2
2019/09/03 04:44:03;;;;;;;7.5;6.3;;;;;;;12.97;80.86035;968.2912;;;;
2019/09/03 04:47:25;;;;;;;8.2;7.3;;;;;;;12.74;82.36914;968.2946;;;;
2019/09/03 04:49:50;;;;;;;7.7;7;;;;;;;12.68;82.11426;968.3119;;;;
2019/09/03 04:52:15;;;;;;;7.5;6.7;;;;;;;12.8;81.71973;968.3172;;;;
2019/09/03 04:54:40;;;;;;;12;8;;;;;;;12.48;83.18652;968.3306;;;;
2019/09/03 04:57:05;;;;;;;8.9;6.9;;;;;;;12.46;83.05469;968.3064;;;;
2019/09/03 04:59:30;;;;;;;8.8;7.5;;;;;;;12.82;81.41211;968.2941;;;;
2019/09/03 05:01:55;;;;;;;8.2;7.4;;;;;;;12.67;81.5459;968.3878;;;;
2019/09/03 05:04:20;;;;;;;9.9;8;;;;;;;12.41;82.54883;968.342;;;;
2019/09/03 05:06:45;;;;;;;10.8;8;;;;;;;12.34;83.73535;968.3613;;;;
2019/09/03 05:09:10;;;;;;;9.1;7.4;;;;;;;12.5;82.19629;968.3644;;;;
2019/09/03 05:11:35;;;;;;;8.6;7.8;;;;;;;12.32;83.17871;968.3912;;;;
2019/09/03 05:14:00;;;;;;;8.4;7.5;;;;;;;12.28;82.92773;968.4316;;;;
2019/09/03 05:16:26;;;;;;;9.6;7.4;;;;;;;12.59;81.93555;968.4547;;;;
2019/09/03 05:18:51;;;;;;;9.7;7.6;;;;;;;12.72;80.8623;968.4905;;;;
2019/09/03 05:21:16;;;;;;;10.3;7.8;;;;;;;12.72;81.02344;968.515;;;;
2019/09/03 05:23:55;;;;;;;8.3;7.3;;;;;;;12.76;80.47559;968.5496;;;;
2019/09/03 05:26:06;;;;;;;8.8;7.4;;;;;;;12.71;80.96289;968.5742;;;;
2019/09/03 05:28:37;;;;;;;8.1;7.3;;;;;;;12.7;81.11133;968.53;;;;
2019/09/03 05:30:56;;;;;;;9;8;;;;;;;12.58;81.64258;968.5595;;;;
2019/09/03 05:33:21;;;;;;;9.8;7.7;;;;;;;12.76;80.47363;968.5666;;;;
2019/09/03 05:35:46;;;;;;;7.9;7.1;;;;;;;12.87;80.4707;968.603;;;;
2019/09/03 05:38:11;;;;;;;8.2;6.7;;;;;;;13.02;79.35254;968.6042;;;;
2019/09/03 05:40:36;;;;;;;11;8;;;;;;;12.77;81.13672;968.6313;;;;
2019/09/03 05:43:02;;;;;;;9.2;7.6;;;;;;;12.63;82.25586;968.6429;;;;
2019/09/03 05:45:27;;;;;;;11.1;8.1;;;;;;;12.59;82.25879;968.6166;;;;
2019/09/03 05:47:52;;;;;;;8.9;7.1;;;;;;;12.74;81.51172;968.6379;;;;
2019/09/03 05:50:17;;;;;;;9.5;7.3;;;;;;;12.76;81.59766;968.6206;;;;
2019/09/03 05:52:42;;;;;;;8.9;8;;;;;;;12.6;82.87402;968.5881;;;;
2019/09/03 05:55:07;;;;;;;10.4;7.4;;;;;;;12.75;82.23047;968.5975;;;;
2019/09/03 05:57:32;;;;;;;9.5;7.2;;;;;;;12.78;81.58887;968.6434;;;;
2019/09/03 05:59:57;;;;;;;10.9;7.8;;;;;;;12.75;81.88281;968.6384;;;;
2019/09/03 06:02:22;;;;;;;9.6;7.9;;;;;;;12.78;82.25977;968.7145;;;;
2019/09/03 06:04:47;;;;;;;9.3;7.2;;;;;;;12.78;81.8418;968.6253;;;;
2019/09/03 06:07:12;;;;;;;8.1;6.8;;;;;;;12.99;81.32715;968.6625;;;;
2019/09/03 06:09:38;;;;;;;8.9;7.8;;;;;;;13.04;80.76953;968.6887;;;;
2019/09/03 06:12:03;;;;;;;9.2;7.3;;;;;;;13.17;80.63086;968.6921;;;;
2019/09/03 06:14:28;;;;;;;9;7.7;;;;;;;13.32;79.3623;968.7336;;;;
2019/09/03 06:16:54;;;;;;;9.2;7;;;;;;;13.4;79.56152;968.7339;;;;
2019/09/03 06:19:19;;;;;;;12.7;8;;;;;;;13.46;79.44629;968.7714;;;;
2019/09/03 06:21:44;;;;;;;11.6;8;;;;;;;13.31;80.77539;968.8457;;;;
2019/09/03 06:24:09;;;;;;;8.3;7.4;;;;;;;13.31;80.04395;968.8567;;;;
2019/09/03 06:26:34;;;;;;;10.3;8.6;;;;;;;13.3;79.26563;968.8812;;;;
2019/09/03 06:28:59;;;;;;;9;8.1;;;;;;;13.58;79.84961;968.8474;;;;
2019/09/03 06:31:25;;;;;;;10.4;8;;;;;;;13.78;78.93652;968.8118;;;;
2019/09/03 06:33:50;;;;;;;9.2;8.3;;;;;;;13.76;79.44336;968.8148;;;;
2019/09/03 06:36:15;;;;;;;10.7;7.9;;;;;;;13.82;79.67383;968.8576;;;;
2019/09/03 06:38:40;;;;;;;8.9;7.4;;;;;;;13.95;79.16309;968.8655;;;;
2019/09/03 06:41:05;;;;;;;10.2;8.3;;;;;;;13.92;78.54395;968.8747;;;;
2019/09/03 06:43:30;;;;;;;10.3;7.7;;;;;;;14.05;78.75293;968.938;;;;
2019/09/03 06:45:55;;;;;;;9.5;8.2;;;;;;;14.22;78.08594;968.9456;;;;
2019/09/03 06:48:20;;;;;;;11;8.6;;;;;;;14.2;79.10547;968.9573;;;;
2019/09/03 06:50:45;;;;;;;11;9;;;;;;;14.3;79.62109;968.9716;;;;
2019/09/03 06:53:10;;;;;;;11.4;9;;;;;;;14.31;78.0459;968.9294;;;;
2019/09/03 06:55:35;;;;;;;12.9;9.8;;;;;;;14.42;77.54199;968.9487;;;;
2019/09/03 06:58:00;;;;;;;11.9;9;;;;;;;14.44;77.30176;968.9178;;;;
2019/09/03 07:00:26;;;;;;;13.4;9.9;;;;;;;14.44;78.27734;968.8899;;;;
2019/09/03 07:02:51;;;;;;;11.2;10;;;;;;;14.52;79.02344;968.9828;;;;
2019/09/03 07:05:16;;;;;;;9.8;8.8;;;;;;;14.57;78.58008;968.9995;;;;
2019/09/03 07:07:41;;;;;;;12.4;9.1;;;;;;;14.75;77.11328;969.0012;;;;
2019/09/03 07:10:06;;;;;;;11.9;10;;;;;;;14.72;77.6875;969.0179;;;;
2019/09/03 07:12:31;;;;;;;11.5;10.3;;;;;;;14.79;78.54883;969.0198;;;;
2019/09/03 07:14:56;;;;;;;12.3;10.2;;;;;;;14.87;77.0293;969.0427;;;;
2019/09/03 07:17:21;;;;;;;12.2;9.6;;;;;;;14.9;77.62891;969.0859;;;;
2019/09/03 07:19:46;;;;;;;13.5;9.9;;;;;;;14.73;76.60938;969.077;;;;
2019/09/03 07:22:11;;;;;;;12.8;9.9;;;;;;;14.83;77.65039;969.1149;;;;
2019/09/03 07:24:36;;;;;;;11.6;10.4;;;;;;;14.95;76.99902;969.1433;;;;
2019/09/03 07:27:01;;;;;;;13.1;11.5;;;;;;;14.96;77.06836;969.128;;;;
2019/09/03 07:29:26;;;;;;;13.3;11.6;;;;;;;15.01;77.13574;969.1106;;;;
2019/09/03 07:31:52;;;;;;;14.4;11.2;;;;;;;15.1;76.41895;969.1147;;;;
2019/09/03 07:34:17;;;;;;;13.1;11.9;;;;;;;15.17;76.09473;969.1358;;;;
2019/09/03 07:36:42;;;;;;;13.4;11.4;;;;;;;15.27;76.61133;969.152;;;;
2019/09/03 07:39:07;;;;;;;12;10.9;;;;;;;15.38;76.89844;969.1448;;;;
2019/09/03 07:41:32;;;;;;;14.6;11.1;;;;;;;15.5;76.24316;969.1599;;;;
2019/09/03 07:43:58;;;;;;;12.5;11.2;;;;;;;15.51;76.53809;969.1509;;;;
2019/09/03 07:46:23;;;;;;;12.9;11.5;;;;;;;15.53;75.7373;969.1555;;;;
2019/09/03 07:48:48;;;;;;;13.2;11.8;;;;;;;15.58;75.22168;969.1642;;;;
2019/09/03 07:51:13;;;;;;;12.6;11.4;;;;;;;15.7;75.41797;969.2225;;;;
2019/09/03 07:53:38;;;;;;;12.7;10.9;;;;;;;16.02;74.18945;969.1816;;;;
2019/09/03 07:56:03;;;;;;;11.2;10.1;;;;;;;16;73.73242;969.2075;;;;
2019/09/03 07:58:29;;;;;;;11.3;10.2;;;;;;;16.01;74.10645;969.2217;;;;
2019/09/03 08:00:54;;;;;;;12.1;10.9;;;;;;;16.06;74.24414;969.2346;;;;
2019/09/03 08:03:20;;;;;;;11.6;10.5;;;;;;;16.11;75.73242;969.2353;;;;
2019/09/03 08:05:45;;;;;;;10.9;9.8;;;;;;;16.22;74.86621;969.2286;;;;
2019/09/03 08:08:10;;;;;;;11.8;10.6;;;;;;;16.18;76.52539;969.2542;;;;
2019/09/03 08:10:36;;;;;;;11.6;10.5;;;;;;;16.29;73.5127;969.217;;;;
2019/09/03 08:13:01;;;;;;;11.4;10.3;;;;;;;16.33;73.7998;969.2158;;;;
2019/09/03 08:15:26;;;;;;;11.1;10;;;;;;;16.36;75.29883;969.2527;;;;
2019/09/03 08:17:51;;;;;;;10.9;9.6;;;;;;;16.58;74.0166;969.2477;;;;
2019/09/03 08:20:16;;;;;;;10.8;9.7;;;;;;;16.61;73.69434;969.2086;;;;
2019/09/03 08:22:41;;;;;;;10.2;9.1;;;;;;;16.6;72.96973;969.205;;;;
2019/09/03 08:25:07;;;;;;;9.8;8.8;;;;;;;16.66;73.5752;969.2051;;;;
2019/09/03 08:27:32;;;;;;;10.5;8.8;;;;;;;16.77;71.43359;969.185;;;;
2019/09/03 08:29:57;;;;;;;10.2;9.1;;;;;;;16.73;73.58789;969.1794;;;;
2019/09/03 08:32:22;;;;;;;10.9;8.2;;;;;;;16.83;70.18457;969.2712;;;;
2019/09/03 08:34:48;;;;;;;8.4;7.5;;;;;;;16.95;71.28809;969.2346;;;;
2019/09/03 08:37:13;;;;;;;9.7;7.6;;;;;;;17.07;70.48926;969.2283;;;;
2019/09/03 08:39:38;;;;;;;8.4;7.2;;;;;;;17.13;70.51074;969.1563;;;;
2019/09/03 08:42:04;;;;;;;9.1;7.3;;;;;;;17.25;66.7207;969.2159;;;;
2019/09/03 08:44:29;;;;;;;6.8;6.1;;;;;;;17.33;67.46973;969.2372;;;;
2019/09/03 08:46:54;;;;;;;9.8;7.1;;;;;;;17.29;66.49414;969.223;;;;
2019/09/03 08:49:20;;;;;;;8.6;6.9;;;;;;;17.42;65.78711;969.2628;;;;
2019/09/03 08:51:45;;;;;;;8.1;5.8;;;;;;;17.6;64.56348;969.2731;;;;
2019/09/03 08:54:10;;;;;;;9.1;5.8;;;;;;;17.5;63.09766;969.2417;;;;
2019/09/03 08:56:35;;;;;;;7.8;5.2;;;;;;;17.51;62.25977;969.2148;;;;
2019/09/03 08:59:00;;;;;;;6.8;4;;;;;;;17.5;60.52539;969.1881;;;;
2019/09/03 09:01:25;;;;;;;6;4.3;;;;;;;17.53;60.85742;969.1878;;;;
2019/09/03 09:03:51;;;;;;;7;4.3;;;;;;;17.63;60.97754;969.1917;;;;
2019/09/03 09:06:16;;;;;;;6.4;4.8;;;;;;;17.64;61.08301;969.1884;;;;
2019/09/03 09:08:42;;;;;;;5.5;4;;;;;;;17.61;60.22363;969.1989;;;;
2019/09/03 09:11:07;;;;;;;5.9;3.6;;;;;;;17.74;57.25977;969.1711;;;;
2019/09/03 09:13:32;;;;;;;5.4;3.6;;;;;;;17.76;57.67188;969.1595;;;;
2019/09/03 09:15:57;;;;;;;6.5;3.7;;;;;;;17.75;56.20703;969.1547;;;;
2019/09/03 09:18:23;;;;;;;6.8;3.8;;;;;;;17.78;59.06641;969.1428;;;;
2019/09/03 09:20:48;;;;;;;7.3;3.9;;;;;;;17.74;62.94629;969.1077;;;;
2019/09/03 09:23:13;;;;;;;5.2;3.2;;;;;;;17.88;61.24512;969.0444;;;;
2019/09/03 09:25:38;;;;;;;5;2.9;;;;;;;18.12;56.55957;969.0043;;;;
2019/09/03 09:28:03;;;;;;;5.8;3.3;;;;;;;18.15;55.34473;968.9995;;;;
2019/09/03 09:30:29;;;;;;;4.9;2.8;;;;;;;18.25;55.24023;968.9746;;;;
2019/09/03 09:32:54;;;;;;;3.8;2.6;;;;;;;18.46;54.84473;968.9498;;;;
2019/09/03 09:35:19;;;;;;;4.6;2.3;;;;;;;18.51;52.68262;968.9416;;;;
2019/09/03 09:37:44;;;;;;;5.2;2.8;;;;;;;18.67;52.21094;968.995;;;;
2019/09/03 09:40:09;;;;;;;4.7;2.6;;;;;;;18.76;51.07227;969.0145;;;;
2019/09/03 09:42:35;;;;;;;3.7;2;;;;;;;18.82;52.81445;969.0039;;;;
2019/09/03 09:45:00;;;;;;;3.4;2.2;;;;;;;18.86;51.69336;968.9973;;;;
2019/09/03 09:47:25;;;;;;;4.9;2.5;;;;;;;18.76;50.98926;969.0062;;;;
2019/09/03 09:49:50;;;;;;;4.9;2.4;;;;;;;18.68;52.63281;968.9883;;;;
2019/09/03 09:52:16;;;;;;;6;2.8;;;;;;;18.59;52.71582;968.9666;;;;
2019/09/03 09:54:41;;;;;;;7.6;4.4;;;;;;;18.62;52.56738;968.9286;;;;
2019/09/03 09:57:06;;;;;;;4.2;3.3;;;;;;;18.65;52.95801;968.9659;;;;
2019/09/03 09:59:31;;;;;;;3.5;1.9;;;;;;;18.56;52.64258;968.9244;;;;
2019/09/03 10:01:56;;;;;;;3.5;1.6;;;;;;;18.45;47.70703;968.9207;;;;
2019/09/03 10:04:21;;;;;;;4;2;;;;;;;18.42;47.90332;968.9355;;;;
2019/09/03 10:06:46;;;;;;;3.3;1.6;;;;;;;18.52;48.41895;968.9244;;;;
2019/09/03 10:09:12;;;;;;;5;1.7;;;;;;;18.45;49.02051;968.9049;;;;
2019/09/03 10:11:37;;;;;;;3.9;2.5;;;;;;;18.47;49.13965;968.8945;;;;
2019/09/03 10:14:02;;;;;;;3.6;1.9;;;;;;;18.56;49.18457;968.8344;;;;
2019/09/03 10:16:27;;;;;;;5.5;1.9;;;;;;;18.68;48.09668;968.8628;;;;
2019/09/03 10:18:52;;;;;;;5.1;2;;;;;;;18.89;48.41211;968.8561;;;;
2019/09/03 10:21:18;;;;;;;4.6;2;;;;;;;19.15;46.79688;968.8515;;;;
2019/09/03 10:23:43;;;;;;;5;2.1;;;;;;;19.18;47.76367;968.887;;;;
2019/09/03 10:26:08;;;;;;;4.7;2.3;;;;;;;19.23;47.45215;968.8136;;;;
2019/09/03 10:28:33;;;;;;;4;2;;;;;;;19.08;49.61816;968.8339;;;;
2019/09/03 10:30:58;;;;;;;4.4;2.2;;;;;;;19.21;47.62598;968.7921;;;;
2019/09/03 10:33:23;;;;;;;3.9;2.1;;;;;;;19.24;47.20605;968.778;;;;
2019/09/03 10:35:48;;;;;;;5.4;2.2;;;;;;;19.27;46.54102;968.7654;;;;
2019/09/03 10:38:13;;;;;;;3.2;1.8;;;;;;;19.24;47.875;968.7341;;;;
2019/09/03 10:40:38;;;;;;;5.4;2.4;;;;;;;19.36;45.91602;968.668;;;;
2019/09/03 10:43:43;;;;;;;3.4;2.1;;;;;;;19.39;47.41016;968.715;;;;
2019/09/03 10:46:54;;;;;;;4.5;2;;;;;;;19.43;47.00293;968.6809;;;;
2019/09/03 10:50:05;;;;;;;4.3;2;;;;;;;19.27;46.93848;968.6961;;;;
2019/09/03 10:53:16;;;;;;;4.2;1.9;;;;;;;19.3;46.44824;968.6531;;;;
2019/09/03 10:56:12;;;;;;;3.1;1.7;;;;;;;19.09;46.68457;968.6688;;;;
2019/09/03 10:58:37;;;;;;;4.7;1.8;;;;;;;18.88;47.60059;968.6696;;;;
2019/09/03 11:01:02;;;;;;;3.8;1.6;;;;;;;19.23;46.7832;968.6566;;;;
2019/09/03 11:03:27;;;;;;;3.9;2;;;;;;;19.23;46.99316;968.6687;;;;
2019/09/03 11:05:52;;;;;;;4.6;2;;;;;;;19.31;46.35547;968.6316;;;;
2019/09/03 11:08:17;;;;;;;3.7;1.9;;;;;;;19.48;46.25586;968.5563;;;;
2019/09/03 11:10:42;;;;;;;3.2;1.7;;;;;;;19.44;46.00586;968.5181;;;;
2019/09/03 11:13:08;;;;;;;3.6;1.9;;;;;;;19.54;45.00684;968.4858;;;;
2019/09/03 11:15:33;;;;;;;3.7;1.8;;;;;;;19.45;44.12695;968.4885;;;;
2019/09/03 11:17:58;;;;;;;4.2;1.9;;;;;;;19.49;46.17578;968.4924;;;;
2019/09/03 11:20:23;;;;;;;2.7;1.5;;;;;;;19.67;45.47852;968.4659;;;;
2019/09/03 11:22:48;;;;;;;2.6;1.4;;;;;;;19.56;47.51074;968.4426;;;;
2019/09/03 11:25:13;;;;;;;3.5;1.6;;;;;;;19.59;45.23438;968.4103;;;;
2019/09/03 11:27:38;;;;;;;3.7;1.5;;;;;;;19.68;46.44238;968.4484;;;;
2019/09/03 11:30:03;;;;;;;4.3;2;;;;;;;19.99;44.28809;968.4875;;;;
2019/09/03 11:32:28;;;;;;;4.1;2.1;;;;;;;20.05;43.59961;968.4741;;;;
2019/09/03 11:34:54;;;;;;;3;1.4;;;;;;;20.39;44.45801;968.4219;;;;
2019/09/03 11:37:19;;;;;;;3.2;1.2;;;;;;;20.5;41.57129;968.4712;;;;
2019/09/03 11:39:44;;;;;;;2.8;1.5;;;;;;;20.34;42.86328;968.405;;;;
2019/09/03 11:42:09;;;;;;;2.8;1.4;;;;;;;20.19;41.96582;968.361;;;;
2019/09/03 11:44:34;;;;;;;3.9;1.7;;;;;;;20.13;42.07813;968.4156;;;;
2019/09/03 11:46:59;;;;;;;4.4;2;;;;;;;19.96;42.34473;968.3915;;;;
2019/09/03 11:49:24;;;;;;;2.7;1.5;;;;;;;19.89;43.83008;968.3287;;;;
2019/09/03 11:51:49;;;;;;;3.3;1.5;;;;;;;20.09;42.96875;968.2718;;;;
2019/09/03 11:54:15;;;;;;;3.7;2.5;;;;;;;20.38;42.10156;968.3434;;;;
2019/09/03 11:56:40;;;;;;;3.2;2.3;;;;;;;20.43;41.11719;968.3156;;;;
2019/09/03 11:59:05;;;;;;;2.6;1.4;;;;;;;20.56;41.83594;968.3022;;;;
2019/09/03 12:01:30;;;;;;;4.2;2.1;;;;;;;20.58;41.39063;968.301;;;;
2019/09/03 12:03:55;;;;;;;3.9;1.8;;;;;;;20.52;40.17285;968.3239;;;;
2019/09/03 12:06:20;;;;;;;3.4;1.8;;;;;;;20.53;39.98535;968.2939;;;;
2019/09/03 12:08:45;;;;;;;2;1.3;;;;;;;20.6;42.33496;968.2106;;;;
2019/09/03 12:11:10;;;;;;;3;1.5;;;;;;;20.88;41.00684;968.2676;;;;
2019/09/03 12:13:35;;;;;;;3.6;1.7;;;;;;;20.62;41.41797;968.1941;;;;
2019/09/03 12:16:00;;;;;;;3.9;1.3;;;;;;;20.76;41.1123;968.1896;;;;
2019/09/03 12:18:26;;;;;;;3;1.4;;;;;;;20.73;40.07324;968.1403;;;;
2019/09/03 12:20:51;;;;;;;3.3;1.6;;;;;;;20.73;41.35742;968.1384;;;;
2019/09/03 12:23:16;;;;;;;3.3;1.5;;;;;;;20.77;40.69043;968.1136;;;;
2019/09/03 12:25:41;;;;;;;1.9;1.5;;;;;;;20.76;38.41602;968.098;;;;
2019/09/03 12:28:06;;;;;;;3.8;1.6;;;;;;;20.71;39.91895;968.027;;;;
2019/09/03 12:30:31;;;;;;;3.8;1.6;;;;;;;20.8;40.12695;968.0297;;;;
2019/09/03 12:32:57;;;;;;;2.8;1.6;;;;;;;21;40.12207;968.0388;;;;
2019/09/03 12:35:22;;;;;;;3.7;1.4;;;;;;;20.72;39.50684;967.9911;;;;
2019/09/03 12:37:47;;;;;;;2.4;1.5;;;;;;;20.79;39.64355;967.9436;;;;
2019/09/03 12:40:13;;;;;;;3.7;1.6;;;;;;;20.86;41.94727;967.9661;;;;
2019/09/03 12:42:37;;;;;;;2.1;1.3;;;;;;;20.92;39.4668;967.9317;;;;
2019/09/03 12:45:02;;;;;;;3;1.7;;;;;;;20.67;39.62109;967.9585;;;;
2019/09/03 12:47:27;;;;;;;2.1;1.5;;;;;;;20.56;39.03418;967.9534;;;;
2019/09/03 12:49:53;;;;;;;4.5;1.6;;;;;;;20.77;40.05371;967.9311;;;;
2019/09/03 12:52:18;;;;;;;3;1.6;;;;;;;21.34;39.63281;967.8849;;;;
2019/09/03 12:54:43;;;;;;;5.9;1.6;;;;;;;21.45;40.06836;967.8459;;;;
2019/09/03 12:57:09;;;;;;;3.5;1.4;;;;;;;21.77;38.58594;967.8597;;;;
2019/09/03 12:59:34;;;;;;;3.7;1.5;;;;;;;21.44;37.75488;967.8889;;;;
2019/09/03 13:01:59;;;;;;;3.7;1.8;;;;;;;21.39;37.99707;967.8845;;;;
2019/09/03 13:04:24;;;;;;;3.2;1.6;;;;;;;21.52;35.14258;967.8343;;;;
2019/09/03 13:06:49;;;;;;;3.1;1.5;;;;;;;21.45;39.01758;967.767;;;;
2019/09/03 13:09:14;;;;;;;3.3;1.7;;;;;;;21.33;38.9248;967.7713;;;;
2019/09/03 13:11:40;;;;;;;3.9;1.5;;;;;;;21.03;42.12793;967.7573;;;;
2019/09/03 13:14:05;;;;;;;3.5;1.6;;;;;;;21.42;42.42578;967.6811;;;;
2019/09/03 13:16:30;;;;;;;4;1.6;;;;;;;21.32;41.58984;967.6866;;;;
2019/09/03 13:18:55;;;;;;;3.6;1.6;;;;;;;21.26;40.90039;967.6715;;;;
2019/09/03 13:21:20;;;;;;;3.1;1.4;;;;;;;21.12;41.34668;967.6437;;;;
2019/09/03 13:23:46;;;;;;;2.1;1.3;;;;;;;21.42;42;967.6248;;;;
2019/09/03 13:26:11;;;;;;;2.5;1.5;;;;;;;21.71;40.83594;967.6287;;;;
2019/09/03 13:28:36;;;;;;;2.4;1.5;;;;;;;21.65;39.94434;967.6072;;;;
2019/09/03 13:31:01;;;;;;;2.4;1.3;;;;;;;21.55;40.77344;967.5786;;;;
2019/09/03 13:33:26;;;;;;;2.1;1.4;;;;;;;21.72;40.83594;967.5775;;;;
2019/09/03 13:35:52;;;;;;;3;1.6;;;;;;;21.75;40.7207;967.6203;;;;
2019/09/03 13:38:17;;;;;;;2.7;1.3;;;;;;;21.74;39.3623;967.6167;;;;
2019/09/03 13:40:42;;;;;;;4.1;1.2;;;;;;;21.66;38.11621;967.574;;;;
2019/09/03 13:43:07;;;;;;;3;1.3;;;;;;;21.64;35.08105;967.6122;;;;
2019/09/03 13:45:32;;;;;;;2.2;1.2;;;;;;;21.92;35.45703;967.609;;;;
2019/09/03 13:47:57;;;;;;;3;1.3;;;;;;;21.5;38.51465;967.5715;;;;
2019/09/03 13:50:23;;;;;;;3.5;1.4;;;;;;;21.56;38.43652;967.551;;;;
2019/09/03 13:52:48;;;;;;;2.7;1.3;;;;;;;21.61;36.69434;967.5753;;;;
2019/09/03 13:55:13;;;;;;;3.2;1.3;;;;;;;21.68;36.83008;967.6044;;;;
2019/09/03 13:57:38;;;;;;;2.6;1.3;;;;;;;21.71;38.08496;967.5192;;;;
2019/09/03 14:00:03;;;;;;;2.5;1.2;;;;;;;21.41;38.88574;967.5019;;;;
2019/09/03 14:02:28;;;;;;;2.5;1.2;;;;;;;21.39;37.82129;967.5239;;;;
2019/09/03 14:04:54;;;;;;;3.3;1.5;;;;;;;21.43;38.32031;967.5009;;;;
2019/09/03 14:07:19;;;;;;;2.2;1;;;;;;;21.6;37.70996;967.4833;;;;
2019/09/03 14:09:44;;;;;;;3.5;1.3;;;;;;;21.65;39.09473;967.4405;;;;
2019/09/03 14:12:10;;;;;;;2.2;1.3;;;;;;;21.85;40.74121;967.5028;;;;
2019/09/03 14:14:35;;;;;;;2.9;1.4;;;;;;;21.81;39.95898;967.4619;;;;
2019/09/03 14:17:00;;;;;;;3.1;1.4;;;;;;;21.7;39.2168;967.4482;;;;
2019/09/03 14:19:25;;;;;;;2.8;1.2;;;;;;;21.98;39.98633;967.4445;;;;
2019/09/03 14:21:51;;;;;;;4.6;1.3;;;;;;;21.91;38.85742;967.4746;;;;
2019/09/03 14:24:16;;;;;;;2.4;1.3;;;;;;;21.93;39.61523;967.4828;;;;
2019/09/03 14:26:42;;;;;;;2.4;1.2;;;;;;;22.11;39.98633;967.4537;;;;
2019/09/03 14:29:07;;;;;;;5.7;1.6;;;;;;;22.17;39.08203;967.4691;;;;
2019/09/03 14:31:33;;;;;;;2.9;1.3;;;;;;;21.99;41.02637;967.4579;;;;
2019/09/03 14:33:58;;;;;;;3.4;1.5;;;;;;;22.24;39.46484;967.4;;;;
2019/09/03 14:36:24;;;;;;;3.7;1.6;;;;;;;22.16;39.31641;967.3251;;;;
2019/09/03 14:38:49;;;;;;;3.3;1.4;;;;;;;22.19;38.49121;967.413;;;;
2019/09/03 14:41:14;;;;;;;2.8;1.4;;;;;;;21.95;39.10938;967.3395;;;;
2019/09/03 14:43:39;;;;;;;4;2;;;;;;;21.84;39.5957;967.3462;;;;
2019/09/03 14:46:04;;;;;;;2.8;1.1;;;;;;;22.09;40.25586;967.3104;;;;
2019/09/03 14:48:29;;;;;;;2.3;1.4;;;;;;;22.02;38.52539;967.2682;;;;
2019/09/03 14:50:54;;;;;;;2;1.3;;;;;;;22.02;39.98926;967.2758;;;;
2019/09/03 14:53:19;;;;;;;3.3;1.3;;;;;;;22.02;39.39941;967.269;;;;
2019/09/03 14:55:45;;;;;;;3.3;1.4;;;;;;;21.93;40.02832;967.2419;;;;
2019/09/03 14:58:10;;;;;;;3;1.4;;;;;;;21.91;37.99512;967.2181;;;;
2019/09/03 15:00:35;;;;;;;4.5;1.9;;;;;;;21.87;38.74805;967.2676;;;;
2019/09/03 15:03:00;;;;;;;2.6;1.4;;;;;;;21.76;39.76563;967.2053;;;;
2019/09/03 15:05:26;;;;;;;3.8;1.4;;;;;;;21.65;40.27637;967.2187;;;;
2019/09/03 15:07:51;;;;;;;2.7;1.3;;;;;;;21.51;41.28906;967.1872;;;;
2019/09/03 15:10:16;;;;;;;3.3;1.5;;;;;;;21.66;40.25195;967.1749;;;;
2019/09/03 15:12:41;;;;;;;3;1.3;;;;;;;21.74;40.56641;967.1887;;;;
2019/09/03 15:15:07;;;;;;;3.7;1.6;;;;;;;21.66;38.98926;967.1833;;;;
2019/09/03 15:17:32;;;;;;;3.4;1.6;;;;;;;21.59;39.24219;967.1624;;;;
2019/09/03 15:19:57;;;;;;;2.4;1.4;;;;;;;21.58;39.64355;967.1641;;;;
2019/09/03 15:22:22;;;;;;;1.9;1.2;;;;;;;21.56;40.86914;967.1975;;;;
2019/09/03 15:24:48;;;;;;;3.3;1.5;;;;;;;21.61;40.83789;967.2012;;;;
2019/09/03 15:27:14;;;;;;;3.3;1.4;;;;;;;21.65;40.61719;967.1931;;;;
2019/09/03 15:29:38;;;;;;;3.8;1.8;;;;;;;21.56;39.2041;967.1097;;;;
2019/09/03 15:32:04;;;;;;;3.6;1.6;;;;;;;21.55;39.65234;967.1761;;;;
2019/09/03 15:34:29;;;;;;;2.5;1.5;;;;;;;21.46;40.82422;967.1266;;;;
2019/09/03 15:36:54;;;;;;;2.9;1.5;;;;;;;21.49;39.62305;967.142;;;;
2019/09/03 15:39:19;;;;;;;4.7;1.5;;;;;;;21.22;41.41504;967.1058;;;;
2019/09/03 15:41:45;;;;;;;4.3;1.5;;;;;;;21.15;41.76367;967.133;;;;
2019/09/03 15:44:10;;;;;;;3.5;1.2;;;;;;;21.13;41.76074;967.1016;;;;
2019/09/03 15:46:35;;;;;;;3.7;1.3;;;;;;;21.21;41.33203;967.0977;;;;
2019/09/03 15:49:00;;;;;;;3.2;1.3;;;;;;;21.25;40.1084;967.0706;;;;
2019/09/03 15:51:25;;;;;;;2.5;1.2;;;;;;;21.34;40.83691;967.0762;;;;
2019/09/03 15:53:52;;;;;;;2.7;1.4;;;;;;;21.27;40.81836;967.0995;;;;
2019/09/03 15:56:17;;;;;;;3.5;1.3;;;;;;;21.19;40.44629;967.1102;;;;
2019/09/03 15:58:42;;;;;;;2.5;1.5;;;;;;;21.22;41.07324;967.0991;;;;
2019/09/03 16:01:07;;;;;;;2.7;1.4;;;;;;;21.35;39.70508;967.105;;;;
2019/09/03 16:03:33;;;;;;;2.8;1.3;;;;;;;21.19;40.31641;967.0818;;;;
2019/09/03 16:05:58;;;;;;;2.7;1.4;;;;;;;21.11;41.08691;967.0851;;;;
2019/09/03 16:08:23;;;;;;;2.4;1.2;;;;;;;21.21;41.69727;967.0413;;;;
2019/09/03 16:10:48;;;;;;;3.4;1.4;;;;;;;21.29;41.58691;967.0525;;;;
2019/09/03 16:13:13;;;;;;;2.8;1.3;;;;;;;21.24;40.75684;967.0424;;;;
2019/09/03 16:15:38;;;;;;;3.4;1.5;;;;;;;21;40.91211;967.0159;;;;
2019/09/03 16:18:03;;;;;;;2.2;1.2;;;;;;;20.72;42.8877;967.0341;;;;
2019/09/03 16:20:30;;;;;;;2.3;1.2;;;;;;;20.75;42.65527;967.0081;;;;
2019/09/03 16:22:55;;;;;;;2.9;1.8;;;;;;;20.8;43.34375;967.0186;;;;
2019/09/03 16:25:20;;;;;;;2.8;1.7;;;;;;;20.9;41.79785;967.0144;;;;
2019/09/03 16:27:46;;;;;;;4.2;1.7;;;;;;;21.07;42.27344;966.9174;;;;
2019/09/03 16:30:11;;;;;;;2.4;1.4;;;;;;;21.16;41.5625;966.9537;;;;
2019/09/03 16:32:36;;;;;;;2.3;1.2;;;;;;;20.98;42.9248;966.9299;;;;
2019/09/03 16:35:01;;;;;;;2.2;1.4;;;;;;;20.9;42.70605;966.933;;;;
2019/09/03 16:37:26;;;;;;;3.4;1.3;;;;;;;20.84;43.26465;966.9776;;;;
2019/09/03 16:39:51;;;;;;;2.8;1.4;;;;;;;21.03;41.48047;966.9469;;;;
2019/09/03 16:42:16;;;;;;;3.4;1.3;;;;;;;21.04;41.30371;966.9575;;;;
2019/09/03 16:44:41;;;;;;;3.6;1.2;;;;;;;21.06;40.97559;966.9416;;;;
2019/09/03 16:47:06;;;;;;;3.9;1.5;;;;;;;21.05;40.75098;966.9175;;;;
2019/09/03 16:49:31;;;;;;;3.7;1.4;;;;;;;20.92;40.7627;966.8923;;;;
2019/09/03 16:51:57;;;;;;;2.3;1.2;;;;;;;20.81;41.81152;966.9091;;;;
2019/09/03 16:54:22;;;;;;;2.4;1.3;;;;;;;20.7;43.81641;966.9168;;;;
2019/09/03 16:56:47;;;;;;;2.5;1.2;;;;;;;20.71;41.85059;966.925;;;;
2019/09/03 16:59:12;;;;;;;2.3;1.2;;;;;;;20.7;42.56836;966.95;;;;
2019/09/03 17:01:37;;;;;;;1.5;1.1;;;;;;;20.5;43.06738;966.957;;;;
2019/09/03 17:04:03;;;;;;;2.1;1.2;;;;;;;20.53;43.31738;966.9672;;;;
2019/09/03 17:06:28;;;;;;;5.1;2.4;;;;;;;20.59;42.62793;966.9311;;;;
2019/09/03 17:08:53;;;;;;;3.9;1.8;;;;;;;20.56;41.78906;966.9313;;;;
2019/09/03 17:11:19;;;;;;;3.2;1.8;;;;;;;20.54;42.12891;966.9727;;;;
2019/09/03 17:16:09;;;;;;;3.7;2.1;;;;;;;20.58;42.69727;966.9724;;;;
2019/09/03 17:18:34;;;;;;;3.4;2.1;;;;;;;20.57;43.7334;966.9716;;;;
2019/09/03 17:20:59;;;;;;;2.6;1.7;;;;;;;20.53;43.54004;966.9233;;;;
2019/09/03 17:23:24;;;;;;;4.3;2.1;;;;;;;20.46;43.43945;966.9227;;;;
2019/09/03 17:25:49;;;;;;;3;2;;;;;;;20.22;47.29883;966.9325;;;;
2019/09/03 17:28:15;;;;;;;2.7;1.6;;;;;;;20.4;43.53906;966.9304;;;;
2019/09/03 17:30:40;;;;;;;3.3;1.6;;;;;;;20.44;42.51855;966.9494;;;;
2019/09/03 17:33:05;;;;;;;2.9;2;;;;;;;20.34;42.94531;966.8887;;;;
2019/09/03 17:35:30;;;;;;;3.3;1.4;;;;;;;20.31;43.13086;966.8639;;;;
2019/09/03 17:37:56;;;;;;;3;1.5;;;;;;;20.27;42.00977;966.8667;;;;
2019/09/03 17:40:21;;;;;;;5;2.6;;;;;;;20.25;42.6543;966.872;;;;
2019/09/03 17:42:46;;;;;;;4;2.8;;;;;;;20.26;42.89063;966.8769;;;;
2019/09/03 17:45:11;;;;;;;3.3;2.4;;;;;;;20.09;46.5791;966.8986;;;;
2019/09/03 17:47:36;;;;;;;3.5;2.4;;;;;;;20.04;46.30371;966.8691;;;;
2019/09/03 17:50:02;;;;;;;4.3;2.3;;;;;;;19.98;47.41504;966.9025;;;;
2019/09/03 17:52:27;;;;;;;3.7;2.2;;;;;;;19.86;48.09473;966.8619;;;;
2019/09/03 17:54:52;;;;;;;2.6;1.9;;;;;;;19.84;47.59961;966.9077;;;;
2019/09/03 17:57:18;;;;;;;2.7;1.8;;;;;;;19.93;43.84668;966.8683;;;;
2019/09/03 17:59:43;;;;;;;3.1;2.1;;;;;;;19.75;47.96484;966.8743;;;;
2019/09/03 18:02:08;;;;;;;2.3;2;;;;;;;19.61;49.54785;966.8819;;;;
2019/09/03 18:04:33;;;;;;;2.9;2.1;;;;;;;19.45;51.47949;966.8778;;;;
2019/09/03 18:06:58;;;;;;;3.2;2;;;;;;;19.39;52.88281;966.8837;;;;
2019/09/03 18:09:24;;;;;;;4.5;2.2;;;;;;;19.32;51.91016;966.9103;;;;
2019/09/03 18:11:49;;;;;;;3.9;2.1;;;;;;;19.24;53.28711;966.9034;;;;
2019/09/03 18:14:15;;;;;;;3.6;2.1;;;;;;;19.21;53.83594;966.9522;;;;
2019/09/03 18:16:40;;;;;;;3.5;2.4;;;;;;;18.98;54.76953;966.9791;;;;
2019/09/03 18:19:05;;;;;;;4;2.5;;;;;;;18.96;54.9541;967.0261;;;;
2019/09/03 18:21:30;;;;;;;6.2;1.9;;;;;;;19.07;48.58398;966.9647;;;;
2019/09/03 18:23:56;;;;;;;3.6;2.3;;;;;;;19.07;54.33496;966.9847;;;;
2019/09/03 18:26:21;;;;;;;2.8;2.2;;;;;;;19.05;53.85156;967.0325;;;;
2019/09/03 18:28:46;;;;;;;3.8;2.2;;;;;;;19.07;53.39551;967.011;;;;
2019/09/03 18:31:11;;;;;;;4.5;2.5;;;;;;;18.92;54.23438;967.0122;;;;
2019/09/03 18:33:36;;;;;;;4.3;2.7;;;;;;;18.83;55.73535;967.0148;;;;
2019/09/03 18:36:01;;;;;;;3.8;3;;;;;;;18.75;56.4873;967.0355;;;;
2019/09/03 18:38:27;;;;;;;5.7;3.2;;;;;;;18.8;55.32227;967.0486;;;;
2019/09/03 18:40:52;;;;;;;4.3;3;;;;;;;18.72;55.55664;967.0435;;;;
2019/09/03 18:43:17;;;;;;;5.4;3.2;;;;;;;18.74;56.47461;967.0628;;;;
2019/09/03 18:45:42;;;;;;;5;3.3;;;;;;;18.64;56.47363;967.0388;;;;
2019/09/03 18:48:07;;;;;;;3.5;2.9;;;;;;;18.56;56.82715;967.1386;;;;
2019/09/03 18:50:33;;;;;;;4.1;3;;;;;;;18.5;57.59375;967.1022;;;;
2019/09/03 18:52:58;;;;;;;4.5;2.8;;;;;;;18.39;57.92969;967.0789;;;;
2019/09/03 18:55:23;;;;;;;5.1;3.1;;;;;;;18.32;59.50293;967.1326;;;;
2019/09/03 18:57:48;;;;;;;3.6;2.7;;;;;;;18.3;61.4209;967.1259;;;;
2019/09/03 19:00:13;;;;;;;5.1;2.8;;;;;;;18.31;61.55273;967.1128;;;;